sensor_id;sensor_type;location;lat;lon;timestamp;P1;durP1;ratioP1;P2;durP2;ratioP2
9745;SDS011;4912;50.836;12.958;2024-01-07T00:01:39;45.35;;;20.02;;
9745;SDS011;4912;50.836;12.958;2024-01-07T00:04:09;44.00;;;20.83;;
9745;SDS011;4912;50.836;12.958;2024-01-07T00:06:40;43.35;;;20.05;;
9745;SDS011;4912;50.836;12.958;2024-01-07T00:09:13;50.75;;;18.17;;
9745;SDS011;4912;50.836;12.958;2024-01-07T00:11:45;43.40;;;19.37;;
9745;SDS011;4912;50.836;12.958;2024-01-07T00:14:16;42.58;;;19.60;;
9745;SDS011;4912;50.836;12.958;2024-01-07T00:16:47;50.50;;;20.02;;
9745;SDS011;4912;50.836;12.958;2024-01-07T00:19:17;44.42;;;20.90;;
9745;SDS011;4912;50.836;12.958;2024-01-07T00:21:48;42.85;;;21.88;;
9745;SDS011;4912;50.836;12.958;2024-01-07T00:24:22;46.28;;;20.35;;
9745;SDS011;4912;50.836;12.958;2024-01-07T00:26:55;43.70;;;21.73;;
9745;SDS011;4912;50.836;12.958;2024-01-07T00:29:30;41.28;;;19.38;;
9745;SDS011;4912;50.836;12.958;2024-01-07T00:32:02;43.07;;;19.73;;
9745;SDS011;4912;50.836;12.958;2024-01-07T00:34:33;39.23;;;19.73;;
9745;SDS011;4912;50.836;12.958;2024-01-07T00:37:04;31.92;;;16.65;;
9745;SDS011;4912;50.836;12.958;2024-01-07T00:39:38;28.45;;;16.40;;
9745;SDS011;4912;50.836;12.958;2024-01-07T00:42:11;29.53;;;15.17;;
9745;SDS011;4912;50.836;12.958;2024-01-07T00:44:41;29.67;;;16.23;;
9745;SDS011;4912;50.836;12.958;2024-01-07T00:47:12;30.38;;;15.27;;
9745;SDS011;4912;50.836;12.958;2024-01-07T00:49:45;27.83;;;14.63;;
9745;SDS011;4912;50.836;12.958;2024-01-07T00:52:16;26.10;;;14.30;;
9745;SDS011;4912;50.836;12.958;2024-01-07T00:54:51;25.70;;;13.90;;
9745;SDS011;4912;50.836;12.958;2024-01-07T00:57:22;27.27;;;13.87;;
9745;SDS011;4912;50.836;12.958;2024-01-07T00:59:53;24.17;;;13.70;;
9745;SDS011;4912;50.836;12.958;2024-01-07T01:02:24;26.92;;;14.55;;
9745;SDS011;4912;50.836;12.958;2024-01-07T01:05:02;25.07;;;13.73;;
9745;SDS011;4912;50.836;12.958;2024-01-07T01:07:33;27.90;;;14.63;;
9745;SDS011;4912;50.836;12.958;2024-01-07T01:10:07;28.05;;;14.30;;
9745;SDS011;4912;50.836;12.958;2024-01-07T01:12:40;28.03;;;15.53;;
9745;SDS011;4912;50.836;12.958;2024-01-07T01:15:11;27.70;;;15.90;;
9745;SDS011;4912;50.836;12.958;2024-01-07T01:17:43;29.03;;;16.37;;
9745;SDS011;4912;50.836;12.958;2024-01-07T01:20:16;28.53;;;16.30;;
9745;SDS011;4912;50.836;12.958;2024-01-07T01:22:47;33.58;;;17.45;;
9745;SDS011;4912;50.836;12.958;2024-01-07T01:25:22;33.23;;;17.63;;
9745;SDS011;4912;50.836;12.958;2024-01-07T01:27:54;37.90;;;19.07;;
9745;SDS011;4912;50.836;12.958;2024-01-07T01:30:25;33.37;;;18.93;;
9745;SDS011;4912;50.836;12.958;2024-01-07T01:32:58;36.37;;;18.67;;
9745;SDS011;4912;50.836;12.958;2024-01-07T01:35:30;43.00;;;20.93;;
9745;SDS011;4912;50.836;12.958;2024-01-07T01:38:01;41.67;;;21.42;;
9745;SDS011;4912;50.836;12.958;2024-01-07T01:40:34;40.83;;;20.83;;
9745;SDS011;4912;50.836;12.958;2024-01-07T01:43:05;39.67;;;20.60;;
9745;SDS011;4912;50.836;12.958;2024-01-07T01:45:36;46.08;;;22.17;;
9745;SDS011;4912;50.836;12.958;2024-01-07T01:48:07;41.00;;;21.55;;
9745;SDS011;4912;50.836;12.958;2024-01-07T01:50:38;36.03;;;21.25;;
9745;SDS011;4912;50.836;12.958;2024-01-07T01:53:08;44.25;;;23.55;;
9745;SDS011;4912;50.836;12.958;2024-01-07T01:58:13;43.00;;;21.03;;
9745;SDS011;4912;50.836;12.958;2024-01-07T02:00:44;44.40;;;21.05;;
9745;SDS011;4912;50.836;12.958;2024-01-07T02:03:16;48.23;;;21.73;;
9745;SDS011;4912;50.836;12.958;2024-01-07T02:08:21;46.30;;;22.07;;
9745;SDS011;4912;50.836;12.958;2024-01-07T02:10:55;47.77;;;21.97;;
9745;SDS011;4912;50.836;12.958;2024-01-07T02:13:26;42.20;;;21.30;;
9745;SDS011;4912;50.836;12.958;2024-01-07T02:15:57;47.55;;;22.45;;
9745;SDS011;4912;50.836;12.958;2024-01-07T02:18:28;39.08;;;20.10;;
9745;SDS011;4912;50.836;12.958;2024-01-07T02:20:59;41.35;;;21.17;;
9745;SDS011;4912;50.836;12.958;2024-01-07T02:23:30;44.50;;;25.97;;
9745;SDS011;4912;50.836;12.958;2024-01-07T02:26:04;37.47;;;20.13;;
9745;SDS011;4912;50.836;12.958;2024-01-07T02:28:35;40.30;;;19.83;;
9745;SDS011;4912;50.836;12.958;2024-01-07T02:31:05;42.30;;;19.75;;
9745;SDS011;4912;50.836;12.958;2024-01-07T02:33:36;42.63;;;21.23;;
9745;SDS011;4912;50.836;12.958;2024-01-07T02:38:38;34.53;;;17.30;;
9745;SDS011;4912;50.836;12.958;2024-01-07T02:41:11;40.47;;;19.73;;
9745;SDS011;4912;50.836;12.958;2024-01-07T02:43:41;42.03;;;20.60;;
9745;SDS011;4912;50.836;12.958;2024-01-07T02:46:13;41.65;;;19.92;;
9745;SDS011;4912;50.836;12.958;2024-01-07T02:48:44;36.97;;;18.97;;
9745;SDS011;4912;50.836;12.958;2024-01-07T02:51:15;33.03;;;16.88;;
9745;SDS011;4912;50.836;12.958;2024-01-07T02:53:46;33.65;;;16.70;;
9745;SDS011;4912;50.836;12.958;2024-01-07T02:56:19;32.80;;;17.50;;
9745;SDS011;4912;50.836;12.958;2024-01-07T02:58:49;33.47;;;16.60;;
9745;SDS011;4912;50.836;12.958;2024-01-07T03:01:21;37.17;;;18.25;;
9745;SDS011;4912;50.836;12.958;2024-01-07T03:03:52;38.03;;;18.63;;
9745;SDS011;4912;50.836;12.958;2024-01-07T03:06:26;35.10;;;17.25;;
9745;SDS011;4912;50.836;12.958;2024-01-07T03:08:56;40.10;;;18.17;;
9745;SDS011;4912;50.836;12.958;2024-01-07T03:11:30;38.83;;;18.65;;
9745;SDS011;4912;50.836;12.958;2024-01-07T03:14:01;34.57;;;18.03;;
9745;SDS011;4912;50.836;12.958;2024-01-07T03:16:31;41.35;;;18.67;;
9745;SDS011;4912;50.836;12.958;2024-01-07T03:19:02;34.47;;;17.35;;
9745;SDS011;4912;50.836;12.958;2024-01-07T03:21:33;36.08;;;18.35;;
9745;SDS011;4912;50.836;12.958;2024-01-07T03:24:04;38.90;;;19.63;;
9745;SDS011;4912;50.836;12.958;2024-01-07T03:29:08;34.60;;;17.07;;
9745;SDS011;4912;50.836;12.958;2024-01-07T03:31:39;42.22;;;18.33;;
9745;SDS011;4912;50.836;12.958;2024-01-07T03:34:10;35.47;;;17.52;;
9745;SDS011;4912;50.836;12.958;2024-01-07T03:36:40;37.22;;;17.98;;
9745;SDS011;4912;50.836;12.958;2024-01-07T03:39:11;36.83;;;19.02;;
9745;SDS011;4912;50.836;12.958;2024-01-07T03:41:44;33.83;;;18.15;;
9745;SDS011;4912;50.836;12.958;2024-01-07T03:44:15;37.03;;;17.37;;
9745;SDS011;4912;50.836;12.958;2024-01-07T03:49:16;36.17;;;16.27;;
9745;SDS011;4912;50.836;12.958;2024-01-07T03:51:47;34.72;;;17.98;;
9745;SDS011;4912;50.836;12.958;2024-01-07T03:54:18;34.17;;;16.92;;
9745;SDS011;4912;50.836;12.958;2024-01-07T03:59:22;41.20;;;18.17;;
9745;SDS011;4912;50.836;12.958;2024-01-07T04:01:54;35.77;;;18.07;;
9745;SDS011;4912;50.836;12.958;2024-01-07T04:04:26;38.40;;;18.83;;
9745;SDS011;4912;50.836;12.958;2024-01-07T04:06:57;37.38;;;16.92;;
9745;SDS011;4912;50.836;12.958;2024-01-07T04:09:28;37.90;;;17.95;;
9745;SDS011;4912;50.836;12.958;2024-01-07T04:12:01;41.13;;;18.67;;
9745;SDS011;4912;50.836;12.958;2024-01-07T04:14:32;37.97;;;18.27;;
9745;SDS011;4912;50.836;12.958;2024-01-07T04:17:03;40.10;;;19.95;;
9745;SDS011;4912;50.836;12.958;2024-01-07T04:19:36;40.83;;;18.60;;
9745;SDS011;4912;50.836;12.958;2024-01-07T04:22:07;40.60;;;18.87;;
9745;SDS011;4912;50.836;12.958;2024-01-07T04:24:40;38.97;;;18.25;;
9745;SDS011;4912;50.836;12.958;2024-01-07T04:27:13;41.80;;;18.80;;
9745;SDS011;4912;50.836;12.958;2024-01-07T04:29:44;42.13;;;18.57;;
9745;SDS011;4912;50.836;12.958;2024-01-07T04:32:15;37.35;;;18.25;;
9745;SDS011;4912;50.836;12.958;2024-01-07T04:37:16;38.90;;;17.77;;
9745;SDS011;4912;50.836;12.958;2024-01-07T04:39:47;38.00;;;18.60;;
9745;SDS011;4912;50.836;12.958;2024-01-07T04:42:21;37.08;;;17.60;;
9745;SDS011;4912;50.836;12.958;2024-01-07T04:44:51;44.20;;;18.03;;
9745;SDS011;4912;50.836;12.958;2024-01-07T04:47:23;38.70;;;18.13;;
9745;SDS011;4912;50.836;12.958;2024-01-07T04:49:57;38.77;;;17.17;;
9745;SDS011;4912;50.836;12.958;2024-01-07T04:52:28;33.70;;;16.65;;
9745;SDS011;4912;50.836;12.958;2024-01-07T04:54:59;34.88;;;16.35;;
9745;SDS011;4912;50.836;12.958;2024-01-07T05:00:03;38.70;;;18.00;;
9745;SDS011;4912;50.836;12.958;2024-01-07T05:07:37;37.57;;;15.70;;
9745;SDS011;4912;50.836;12.958;2024-01-07T05:10:09;32.70;;;14.75;;
9745;SDS011;4912;50.836;12.958;2024-01-07T05:15:13;33.80;;;15.23;;
9745;SDS011;4912;50.836;12.958;2024-01-07T05:17:43;32.38;;;15.32;;
9745;SDS011;4912;50.836;12.958;2024-01-07T05:20:15;31.90;;;15.13;;
9745;SDS011;4912;50.836;12.958;2024-01-07T05:22:46;30.73;;;14.13;;
9745;SDS011;4912;50.836;12.958;2024-01-07T05:25:17;35.47;;;15.50;;
9745;SDS011;4912;50.836;12.958;2024-01-07T05:27:50;31.50;;;14.93;;
9745;SDS011;4912;50.836;12.958;2024-01-07T05:30:20;26.30;;;13.50;;
9745;SDS011;4912;50.836;12.958;2024-01-07T05:32:51;26.88;;;13.80;;
9745;SDS011;4912;50.836;12.958;2024-01-07T05:35:22;29.90;;;14.65;;
9745;SDS011;4912;50.836;12.958;2024-01-07T05:37:53;24.95;;;12.95;;
9745;SDS011;4912;50.836;12.958;2024-01-07T05:40:24;31.80;;;15.35;;
9745;SDS011;4912;50.836;12.958;2024-01-07T05:42:57;27.48;;;13.05;;
9745;SDS011;4912;50.836;12.958;2024-01-07T05:45:28;27.87;;;13.77;;
9745;SDS011;4912;50.836;12.958;2024-01-07T05:47:58;26.25;;;13.45;;
9745;SDS011;4912;50.836;12.958;2024-01-07T05:50:29;28.63;;;12.63;;
9745;SDS011;4912;50.836;12.958;2024-01-07T05:53:00;28.00;;;13.32;;
9745;SDS011;4912;50.836;12.958;2024-01-07T05:55:31;26.52;;;12.10;;
9745;SDS011;4912;50.836;12.958;2024-01-07T05:58:04;25.83;;;12.32;;
9745;SDS011;4912;50.836;12.958;2024-01-07T06:00:35;24.63;;;12.43;;
9745;SDS011;4912;50.836;12.958;2024-01-07T06:03:06;27.45;;;12.77;;
9745;SDS011;4912;50.836;12.958;2024-01-07T06:05:37;22.85;;;11.10;;
9745;SDS011;4912;50.836;12.958;2024-01-07T06:08:08;25.90;;;12.77;;
9745;SDS011;4912;50.836;12.958;2024-01-07T06:10:39;26.27;;;11.87;;
9745;SDS011;4912;50.836;12.958;2024-01-07T06:13:13;27.98;;;12.50;;
9745;SDS011;4912;50.836;12.958;2024-01-07T06:15:44;25.87;;;12.53;;
9745;SDS011;4912;50.836;12.958;2024-01-07T06:18:14;26.92;;;12.30;;
9745;SDS011;4912;50.836;12.958;2024-01-07T06:20:45;25.25;;;12.65;;
9745;SDS011;4912;50.836;12.958;2024-01-07T06:23:16;26.25;;;11.65;;
9745;SDS011;4912;50.836;12.958;2024-01-07T06:25:46;25.60;;;12.10;;
9745;SDS011;4912;50.836;12.958;2024-01-07T06:28:19;24.00;;;11.13;;
9745;SDS011;4912;50.836;12.958;2024-01-07T06:30:50;22.83;;;10.83;;
9745;SDS011;4912;50.836;12.958;2024-01-07T06:33:25;20.13;;;9.83;;
9745;SDS011;4912;50.836;12.958;2024-01-07T06:35:56;24.58;;;11.30;;
9745;SDS011;4912;50.836;12.958;2024-01-07T06:38:26;24.52;;;10.38;;
9745;SDS011;4912;50.836;12.958;2024-01-07T06:43:33;23.80;;;10.00;;
9745;SDS011;4912;50.836;12.958;2024-01-07T06:46:04;25.57;;;10.20;;
9745;SDS011;4912;50.836;12.958;2024-01-07T06:48:35;36.13;;;16.80;;
9745;SDS011;4912;50.836;12.958;2024-01-07T06:51:11;19.43;;;9.57;;
9745;SDS011;4912;50.836;12.958;2024-01-07T06:53:41;23.47;;;10.27;;
9745;SDS011;4912;50.836;12.958;2024-01-07T06:56:12;22.92;;;9.55;;
9745;SDS011;4912;50.836;12.958;2024-01-07T06:58:46;21.13;;;9.23;;
9745;SDS011;4912;50.836;12.958;2024-01-07T07:01:19;20.10;;;8.63;;
9745;SDS011;4912;50.836;12.958;2024-01-07T07:03:51;18.10;;;8.33;;
9745;SDS011;4912;50.836;12.958;2024-01-07T07:08:52;17.50;;;8.27;;
9745;SDS011;4912;50.836;12.958;2024-01-07T07:11:23;17.45;;;7.95;;
9745;SDS011;4912;50.836;12.958;2024-01-07T07:13:56;22.98;;;9.65;;
9745;SDS011;4912;50.836;12.958;2024-01-07T07:16:26;44.33;;;24.33;;
9745;SDS011;4912;50.836;12.958;2024-01-07T07:18:57;28.80;;;14.20;;
9745;SDS011;4912;50.836;12.958;2024-01-07T07:21:28;20.42;;;9.30;;
9745;SDS011;4912;50.836;12.958;2024-01-07T07:23:58;19.92;;;9.20;;
9745;SDS011;4912;50.836;12.958;2024-01-07T07:26:29;18.65;;;8.50;;
9745;SDS011;4912;50.836;12.958;2024-01-07T07:29:02;16.70;;;8.38;;
9745;SDS011;4912;50.836;12.958;2024-01-07T07:31:33;17.87;;;8.17;;
9745;SDS011;4912;50.836;12.958;2024-01-07T07:34:04;18.65;;;7.85;;
9745;SDS011;4912;50.836;12.958;2024-01-07T07:39:06;19.10;;;8.82;;
9745;SDS011;4912;50.836;12.958;2024-01-07T07:41:38;19.00;;;7.90;;
9745;SDS011;4912;50.836;12.958;2024-01-07T07:44:11;18.23;;;8.03;;
9745;SDS011;4912;50.836;12.958;2024-01-07T07:46:42;17.63;;;8.83;;
9745;SDS011;4912;50.836;12.958;2024-01-07T07:49:12;17.17;;;7.80;;
9745;SDS011;4912;50.836;12.958;2024-01-07T07:51:43;17.48;;;7.40;;
9745;SDS011;4912;50.836;12.958;2024-01-07T07:54:13;16.30;;;7.38;;
9745;SDS011;4912;50.836;12.958;2024-01-07T07:56:44;23.17;;;11.90;;
9745;SDS011;4912;50.836;12.958;2024-01-07T07:59:15;20.07;;;9.20;;
9745;SDS011;4912;50.836;12.958;2024-01-07T08:01:45;17.23;;;7.70;;
9745;SDS011;4912;50.836;12.958;2024-01-07T08:06:47;15.63;;;7.23;;
9745;SDS011;4912;50.836;12.958;2024-01-07T08:09:18;16.63;;;7.55;;
9745;SDS011;4912;50.836;12.958;2024-01-07T08:11:48;13.73;;;7.35;;
9745;SDS011;4912;50.836;12.958;2024-01-07T08:14:21;13.98;;;8.48;;
9745;SDS011;4912;50.836;12.958;2024-01-07T08:19:22;13.87;;;7.13;;
9745;SDS011;4912;50.836;12.958;2024-01-07T08:21:56;13.40;;;6.77;;
9745;SDS011;4912;50.836;12.958;2024-01-07T08:24:26;13.95;;;6.68;;
9745;SDS011;4912;50.836;12.958;2024-01-07T08:29:30;12.53;;;6.57;;
9745;SDS011;4912;50.836;12.958;2024-01-07T08:32:00;13.67;;;6.40;;
9745;SDS011;4912;50.836;12.958;2024-01-07T08:34:31;18.45;;;7.72;;
9745;SDS011;4912;50.836;12.958;2024-01-07T08:37:02;12.73;;;6.65;;
9745;SDS011;4912;50.836;12.958;2024-01-07T08:39:33;14.55;;;6.72;;
9745;SDS011;4912;50.836;12.958;2024-01-07T08:42:04;13.95;;;6.93;;
9745;SDS011;4912;50.836;12.958;2024-01-07T08:44:38;13.60;;;6.53;;
9745;SDS011;4912;50.836;12.958;2024-01-07T08:47:08;13.27;;;6.33;;
9745;SDS011;4912;50.836;12.958;2024-01-07T08:49:39;13.00;;;6.15;;
9745;SDS011;4912;50.836;12.958;2024-01-07T08:52:10;19.73;;;9.82;;
9745;SDS011;4912;50.836;12.958;2024-01-07T08:54:41;13.02;;;7.20;;
9745;SDS011;4912;50.836;12.958;2024-01-07T08:57:12;10.68;;;5.45;;
9745;SDS011;4912;50.836;12.958;2024-01-07T08:59:45;12.35;;;5.40;;
9745;SDS011;4912;50.836;12.958;2024-01-07T09:02:15;10.93;;;5.57;;
9745;SDS011;4912;50.836;12.958;2024-01-07T09:04:46;11.88;;;5.72;;
9745;SDS011;4912;50.836;12.958;2024-01-07T09:07:17;11.65;;;5.65;;
9745;SDS011;4912;50.836;12.958;2024-01-07T09:09:47;12.07;;;5.90;;
9745;SDS011;4912;50.836;12.958;2024-01-07T09:12:18;11.60;;;5.65;;
9745;SDS011;4912;50.836;12.958;2024-01-07T09:14:51;11.68;;;5.15;;
9745;SDS011;4912;50.836;12.958;2024-01-07T09:17:22;12.23;;;5.23;;
9745;SDS011;4912;50.836;12.958;2024-01-07T09:19:53;9.98;;;5.00;;
9745;SDS011;4912;50.836;12.958;2024-01-07T09:22:23;12.13;;;6.45;;
9745;SDS011;4912;50.836;12.958;2024-01-07T09:24:54;9.88;;;5.30;;
9745;SDS011;4912;50.836;12.958;2024-01-07T09:27:24;10.05;;;6.18;;
9745;SDS011;4912;50.836;12.958;2024-01-07T09:32:29;7.70;;;4.30;;
9745;SDS011;4912;50.836;12.958;2024-01-07T09:35:04;11.17;;;4.57;;
9745;SDS011;4912;50.836;12.958;2024-01-07T09:37:35;8.30;;;4.47;;
9745;SDS011;4912;50.836;12.958;2024-01-07T09:40:06;7.97;;;4.10;;
9745;SDS011;4912;50.836;12.958;2024-01-07T09:42:38;8.23;;;4.83;;
9745;SDS011;4912;50.836;12.958;2024-01-07T09:47:43;9.37;;;4.40;;
9745;SDS011;4912;50.836;12.958;2024-01-07T09:52:45;8.97;;;4.50;;
9745;SDS011;4912;50.836;12.958;2024-01-07T09:55:18;10.23;;;5.80;;
9745;SDS011;4912;50.836;12.958;2024-01-07T09:57:57;10.53;;;4.50;;
9745;SDS011;4912;50.836;12.958;2024-01-07T10:00:30;10.52;;;4.45;;
9745;SDS011;4912;50.836;12.958;2024-01-07T10:03:02;10.17;;;3.87;;
9745;SDS011;4912;50.836;12.958;2024-01-07T10:13:08;9.57;;;3.57;;
9745;SDS011;4912;50.836;12.958;2024-01-07T10:15:41;6.40;;;3.97;;
9745;SDS011;4912;50.836;12.958;2024-01-07T10:20:44;7.90;;;3.03;;
9745;SDS011;4912;50.836;12.958;2024-01-07T10:25:48;10.00;;;4.20;;
9745;SDS011;4912;50.836;12.958;2024-01-07T10:28:19;7.57;;;3.83;;
9745;SDS011;4912;50.836;12.958;2024-01-07T10:30:53;6.25;;;3.38;;
9745;SDS011;4912;50.836;12.958;2024-01-07T10:33:23;7.17;;;3.50;;
9745;SDS011;4912;50.836;12.958;2024-01-07T10:38:27;8.53;;;3.33;;
9745;SDS011;4912;50.836;12.958;2024-01-07T10:40:57;8.75;;;4.30;;
9745;SDS011;4912;50.836;12.958;2024-01-07T10:43:30;8.70;;;4.23;;
9745;SDS011;4912;50.836;12.958;2024-01-07T10:48:36;6.50;;;3.37;;
9745;SDS011;4912;50.836;12.958;2024-01-07T10:51:08;5.90;;;3.07;;
9745;SDS011;4912;50.836;12.958;2024-01-07T10:53:42;7.70;;;4.32;;
9745;SDS011;4912;50.836;12.958;2024-01-07T10:56:16;7.43;;;3.90;;
9745;SDS011;4912;50.836;12.958;2024-01-07T10:58:53;6.77;;;3.60;;
9745;SDS011;4912;50.836;12.958;2024-01-07T11:01:27;8.33;;;3.93;;
9745;SDS011;4912;50.836;12.958;2024-01-07T11:03:59;8.57;;;3.57;;
9745;SDS011;4912;50.836;12.958;2024-01-07T11:06:40;8.67;;;4.07;;
9745;SDS011;4912;50.836;12.958;2024-01-07T11:09:20;9.63;;;5.03;;
9745;SDS011;4912;50.836;12.958;2024-01-07T11:12:00;6.93;;;3.25;;
9745;SDS011;4912;50.836;12.958;2024-01-07T11:14:34;6.70;;;3.33;;
9745;SDS011;4912;50.836;12.958;2024-01-07T11:17:09;6.37;;;3.60;;
9745;SDS011;4912;50.836;12.958;2024-01-07T11:19:48;7.50;;;4.30;;
9745;SDS011;4912;50.836;12.958;2024-01-07T11:22:24;6.88;;;3.70;;
9745;SDS011;4912;50.836;12.958;2024-01-07T11:24:57;6.10;;;3.60;;
9745;SDS011;4912;50.836;12.958;2024-01-07T11:27:30;6.17;;;3.47;;
9745;SDS011;4912;50.836;12.958;2024-01-07T11:30:02;6.47;;;3.80;;
9745;SDS011;4912;50.836;12.958;2024-01-07T11:32:40;5.67;;;3.03;;
9745;SDS011;4912;50.836;12.958;2024-01-07T11:35:11;5.87;;;3.43;;
9745;SDS011;4912;50.836;12.958;2024-01-07T11:37:42;6.63;;;3.47;;
9745;SDS011;4912;50.836;12.958;2024-01-07T11:40:13;6.63;;;3.45;;
9745;SDS011;4912;50.836;12.958;2024-01-07T11:42:45;6.47;;;2.97;;
9745;SDS011;4912;50.836;12.958;2024-01-07T11:45:18;5.33;;;2.67;;
9745;SDS011;4912;50.836;12.958;2024-01-07T11:47:52;5.75;;;2.97;;
9745;SDS011;4912;50.836;12.958;2024-01-07T11:50:22;6.97;;;2.73;;
9745;SDS011;4912;50.836;12.958;2024-01-07T11:52:55;5.90;;;3.07;;
9745;SDS011;4912;50.836;12.958;2024-01-07T11:55:25;5.50;;;3.47;;
9745;SDS011;4912;50.836;12.958;2024-01-07T11:58:00;5.47;;;3.20;;
9745;SDS011;4912;50.836;12.958;2024-01-07T12:00:32;6.10;;;3.22;;
9745;SDS011;4912;50.836;12.958;2024-01-07T12:03:06;5.87;;;3.07;;
9745;SDS011;4912;50.836;12.958;2024-01-07T12:08:10;8.23;;;3.50;;
9745;SDS011;4912;50.836;12.958;2024-01-07T12:10:40;5.33;;;2.73;;
9745;SDS011;4912;50.836;12.958;2024-01-07T12:13:12;7.53;;;2.80;;
9745;SDS011;4912;50.836;12.958;2024-01-07T12:15:43;7.27;;;3.57;;
9745;SDS011;4912;50.836;12.958;2024-01-07T12:18:19;5.95;;;3.08;;
9745;SDS011;4912;50.836;12.958;2024-01-07T12:20:56;7.18;;;3.45;;
9745;SDS011;4912;50.836;12.958;2024-01-07T12:23:27;5.22;;;3.30;;
9745;SDS011;4912;50.836;12.958;2024-01-07T12:28:37;5.20;;;2.40;;
9745;SDS011;4912;50.836;12.958;2024-01-07T12:31:08;5.78;;;2.70;;
9745;SDS011;4912;50.836;12.958;2024-01-07T12:33:42;5.35;;;2.50;;
9745;SDS011;4912;50.836;12.958;2024-01-07T12:36:13;5.80;;;2.87;;
9745;SDS011;4912;50.836;12.958;2024-01-07T12:43:45;4.87;;;2.57;;
9745;SDS011;4912;50.836;12.958;2024-01-07T12:46:16;5.72;;;2.85;;
9745;SDS011;4912;50.836;12.958;2024-01-07T12:48:50;10.10;;;4.43;;
9745;SDS011;4912;50.836;12.958;2024-01-07T12:51:20;5.83;;;2.73;;
9745;SDS011;4912;50.836;12.958;2024-01-07T12:53:51;5.35;;;2.78;;
9745;SDS011;4912;50.836;12.958;2024-01-07T12:58:54;4.50;;;2.30;;
9745;SDS011;4912;50.836;12.958;2024-01-07T13:01:25;5.68;;;2.92;;
9745;SDS011;4912;50.836;12.958;2024-01-07T13:03:59;7.57;;;3.40;;
9745;SDS011;4912;50.836;12.958;2024-01-07T13:09:00;12.27;;;6.90;;
9745;SDS011;4912;50.836;12.958;2024-01-07T13:11:32;7.30;;;3.33;;
9745;SDS011;4912;50.836;12.958;2024-01-07T13:14:03;8.77;;;3.45;;
9745;SDS011;4912;50.836;12.958;2024-01-07T13:16:34;6.93;;;3.50;;
9745;SDS011;4912;50.836;12.958;2024-01-07T13:19:07;5.60;;;3.20;;
9745;SDS011;4912;50.836;12.958;2024-01-07T13:21:38;6.37;;;2.93;;
9745;SDS011;4912;50.836;12.958;2024-01-07T13:24:09;4.82;;;2.90;;
9745;SDS011;4912;50.836;12.958;2024-01-07T13:26:40;6.07;;;3.08;;
9745;SDS011;4912;50.836;12.958;2024-01-07T13:29:11;6.40;;;2.90;;
9745;SDS011;4912;50.836;12.958;2024-01-07T13:31:41;5.67;;;3.20;;
9745;SDS011;4912;50.836;12.958;2024-01-07T13:34:15;5.43;;;3.30;;
9745;SDS011;4912;50.836;12.958;2024-01-07T13:36:46;8.47;;;3.93;;
9745;SDS011;4912;50.836;12.958;2024-01-07T13:39:18;5.60;;;2.93;;
9745;SDS011;4912;50.836;12.958;2024-01-07T13:41:50;5.40;;;2.67;;
9745;SDS011;4912;50.836;12.958;2024-01-07T13:44:21;5.40;;;2.30;;
9745;SDS011;4912;50.836;12.958;2024-01-07T13:46:52;7.30;;;2.80;;
9745;SDS011;4912;50.836;12.958;2024-01-07T13:49:25;5.43;;;2.92;;
9745;SDS011;4912;50.836;12.958;2024-01-07T13:51:56;4.43;;;2.00;;
9745;SDS011;4912;50.836;12.958;2024-01-07T13:54:26;4.07;;;2.58;;
9745;SDS011;4912;50.836;12.958;2024-01-07T13:56:57;5.50;;;2.53;;
9745;SDS011;4912;50.836;12.958;2024-01-07T13:59:28;7.05;;;2.40;;
9745;SDS011;4912;50.836;12.958;2024-01-07T14:01:59;8.55;;;2.47;;
9745;SDS011;4912;50.836;12.958;2024-01-07T14:07:03;5.23;;;2.37;;
9745;SDS011;4912;50.836;12.958;2024-01-07T14:09:33;6.22;;;2.83;;
9745;SDS011;4912;50.836;12.958;2024-01-07T14:12:04;5.72;;;2.60;;
9745;SDS011;4912;50.836;12.958;2024-01-07T14:14:37;5.22;;;2.72;;
9745;SDS011;4912;50.836;12.958;2024-01-07T14:17:08;5.15;;;2.80;;
9745;SDS011;4912;50.836;12.958;2024-01-07T14:19:45;4.82;;;3.10;;
9745;SDS011;4912;50.836;12.958;2024-01-07T14:22:17;5.30;;;2.97;;
9745;SDS011;4912;50.836;12.958;2024-01-07T14:24:48;4.10;;;2.42;;
9745;SDS011;4912;50.836;12.958;2024-01-07T14:27:19;3.85;;;2.10;;
9745;SDS011;4912;50.836;12.958;2024-01-07T14:29:50;4.82;;;1.92;;
9745;SDS011;4912;50.836;12.958;2024-01-07T14:32:21;5.38;;;2.05;;
9745;SDS011;4912;50.836;12.958;2024-01-07T14:34:56;5.70;;;2.23;;
9745;SDS011;4912;50.836;12.958;2024-01-07T14:37:41;5.83;;;2.00;;
9745;SDS011;4912;50.836;12.958;2024-01-07T14:40:12;9.13;;;4.60;;
9745;SDS011;4912;50.836;12.958;2024-01-07T14:42:45;6.53;;;3.20;;
9745;SDS011;4912;50.836;12.958;2024-01-07T14:45:18;6.27;;;2.53;;
9745;SDS011;4912;50.836;12.958;2024-01-07T14:47:49;4.30;;;2.08;;
9745;SDS011;4912;50.836;12.958;2024-01-07T14:55:37;4.13;;;2.23;;
9745;SDS011;4912;50.836;12.958;2024-01-07T14:58:08;4.47;;;2.10;;
9745;SDS011;4912;50.836;12.958;2024-01-07T15:00:39;5.63;;;2.63;;
9745;SDS011;4912;50.836;12.958;2024-01-07T15:03:09;4.80;;;2.20;;
9745;SDS011;4912;50.836;12.958;2024-01-07T15:05:43;4.15;;;2.45;;
9745;SDS011;4912;50.836;12.958;2024-01-07T15:08:14;4.03;;;2.00;;
9745;SDS011;4912;50.836;12.958;2024-01-07T15:10:46;6.63;;;3.00;;
9745;SDS011;4912;50.836;12.958;2024-01-07T15:13:20;4.60;;;2.40;;
9745;SDS011;4912;50.836;12.958;2024-01-07T15:15:54;4.33;;;1.90;;
9745;SDS011;4912;50.836;12.958;2024-01-07T15:18:34;5.15;;;2.22;;
9745;SDS011;4912;50.836;12.958;2024-01-07T15:23:38;9.30;;;4.53;;
9745;SDS011;4912;50.836;12.958;2024-01-07T15:26:10;5.97;;;3.42;;
9745;SDS011;4912;50.836;12.958;2024-01-07T15:28:43;5.23;;;2.50;;
9745;SDS011;4912;50.836;12.958;2024-01-07T15:31:13;4.45;;;2.28;;
9745;SDS011;4912;50.836;12.958;2024-01-07T15:33:45;5.28;;;2.38;;
9745;SDS011;4912;50.836;12.958;2024-01-07T15:36:19;3.93;;;2.10;;
9745;SDS011;4912;50.836;12.958;2024-01-07T15:38:59;4.10;;;1.90;;
9745;SDS011;4912;50.836;12.958;2024-01-07T15:44:10;6.60;;;3.23;;
9745;SDS011;4912;50.836;12.958;2024-01-07T15:49:10;4.73;;;2.37;;
9745;SDS011;4912;50.836;12.958;2024-01-07T15:51:44;4.32;;;2.00;;
9745;SDS011;4912;50.836;12.958;2024-01-07T15:54:15;5.63;;;2.37;;
9745;SDS011;4912;50.836;12.958;2024-01-07T16:01:46;5.07;;;2.40;;
9745;SDS011;4912;50.836;12.958;2024-01-07T16:04:17;5.63;;;2.10;;
9745;SDS011;4912;50.836;12.958;2024-01-07T16:06:53;5.23;;;2.33;;
9745;SDS011;4912;50.836;12.958;2024-01-07T16:09:23;6.87;;;3.30;;
9745;SDS011;4912;50.836;12.958;2024-01-07T16:11:54;4.78;;;2.50;;
9745;SDS011;4912;50.836;12.958;2024-01-07T16:14:25;6.30;;;2.67;;
9745;SDS011;4912;50.836;12.958;2024-01-07T16:16:59;5.10;;;2.43;;
9745;SDS011;4912;50.836;12.958;2024-01-07T16:19:31;6.17;;;2.50;;
9745;SDS011;4912;50.836;12.958;2024-01-07T16:22:04;4.85;;;2.28;;
9745;SDS011;4912;50.836;12.958;2024-01-07T16:24:37;6.47;;;3.23;;
9745;SDS011;4912;50.836;12.958;2024-01-07T16:27:08;6.15;;;2.55;;
9745;SDS011;4912;50.836;12.958;2024-01-07T16:29:39;4.95;;;2.47;;
9745;SDS011;4912;50.836;12.958;2024-01-07T16:32:12;5.90;;;3.20;;
9745;SDS011;4912;50.836;12.958;2024-01-07T16:34:43;5.05;;;2.92;;
9745;SDS011;4912;50.836;12.958;2024-01-07T16:39:46;6.33;;;2.60;;
9745;SDS011;4912;50.836;12.958;2024-01-07T16:42:17;5.40;;;2.58;;
9745;SDS011;4912;50.836;12.958;2024-01-07T16:44:48;3.83;;;2.20;;
9745;SDS011;4912;50.836;12.958;2024-01-07T16:47:18;4.38;;;2.53;;
9745;SDS011;4912;50.836;12.958;2024-01-07T16:49:49;4.70;;;2.30;;
9745;SDS011;4912;50.836;12.958;2024-01-07T16:52:42;4.60;;;2.40;;
9745;SDS011;4912;50.836;12.958;2024-01-07T16:57:43;4.37;;;2.40;;
9745;SDS011;4912;50.836;12.958;2024-01-07T17:00:14;5.68;;;2.47;;
9745;SDS011;4912;50.836;12.958;2024-01-07T17:02:46;4.60;;;2.10;;
9745;SDS011;4912;50.836;12.958;2024-01-07T17:07:50;5.10;;;2.20;;